sensor_id;sensor_type;location;lat;lon;timestamp;P1;durP1;ratioP1;P2;durP2;ratioP2
11287;SDS011;5700;50.996;7.044;2023-06-24T00:01:49;7.45;;;5.03;;
11287;SDS011;5700;50.996;7.044;2023-06-24T00:04:52;8.82;;;4.90;;
11287;SDS011;5700;50.996;7.044;2023-06-24T00:07:54;9.35;;;5.57;;
11287;SDS011;5700;50.996;7.044;2023-06-24T00:10:57;8.27;;;5.22;;
11287;SDS011;5700;50.996;7.044;2023-06-24T00:13:58;8.65;;;4.72;;
11287;SDS011;5700;50.996;7.044;2023-06-24T00:16:59;7.90;;;5.35;;
11287;SDS011;5700;50.996;7.044;2023-06-24T00:20:02;7.28;;;4.68;;
11287;SDS011;5700;50.996;7.044;2023-06-24T00:23:07;7.90;;;5.40;;
11287;SDS011;5700;50.996;7.044;2023-06-24T00:26:08;8.88;;;5.47;;
11287;SDS011;5700;50.996;7.044;2023-06-24T00:29:10;8.70;;;4.93;;
11287;SDS011;5700;50.996;7.044;2023-06-24T00:32:11;7.78;;;5.10;;
11287;SDS011;5700;50.996;7.044;2023-06-24T00:35:14;8.15;;;5.22;;
11287;SDS011;5700;50.996;7.044;2023-06-24T00:38:16;8.00;;;5.38;;
11287;SDS011;5700;50.996;7.044;2023-06-24T00:41:18;7.97;;;4.85;;
11287;SDS011;5700;50.996;7.044;2023-06-24T00:44:20;8.23;;;5.18;;
11287;SDS011;5700;50.996;7.044;2023-06-24T00:47:21;8.15;;;5.18;;
11287;SDS011;5700;50.996;7.044;2023-06-24T00:50:25;8.82;;;5.10;;
11287;SDS011;5700;50.996;7.044;2023-06-24T00:53:26;7.63;;;5.10;;
11287;SDS011;5700;50.996;7.044;2023-06-24T00:56:29;7.57;;;4.95;;
11287;SDS011;5700;50.996;7.044;2023-06-24T00:59:32;8.50;;;5.13;;
11287;SDS011;5700;50.996;7.044;2023-06-24T01:02:33;8.77;;;4.75;;
11287;SDS011;5700;50.996;7.044;2023-06-24T01:05:38;6.97;;;4.75;;
11287;SDS011;5700;50.996;7.044;2023-06-24T01:08:40;10.95;;;5.55;;
11287;SDS011;5700;50.996;7.044;2023-06-24T01:11:42;7.63;;;5.35;;
11287;SDS011;5700;50.996;7.044;2023-06-24T01:14:43;7.82;;;4.95;;
11287;SDS011;5700;50.996;7.044;2023-06-24T01:17:48;10.43;;;4.60;;
11287;SDS011;5700;50.996;7.044;2023-06-24T01:20:56;7.00;;;4.55;;
11287;SDS011;5700;50.996;7.044;2023-06-24T01:24:08;8.15;;;4.70;;
11287;SDS011;5700;50.996;7.044;2023-06-24T01:27:24;11.32;;;5.00;;
11287;SDS011;5700;50.996;7.044;2023-06-24T01:30:38;9.35;;;5.05;;
11287;SDS011;5700;50.996;7.044;2023-06-24T01:33:50;8.13;;;4.88;;
11287;SDS011;5700;50.996;7.044;2023-06-24T01:36:57;6.15;;;4.25;;
11287;SDS011;5700;50.996;7.044;2023-06-24T01:40:05;5.93;;;4.28;;
11287;SDS011;5700;50.996;7.044;2023-06-24T01:43:10;8.15;;;4.80;;
11287;SDS011;5700;50.996;7.044;2023-06-24T01:46:14;8.90;;;5.25;;
11287;SDS011;5700;50.996;7.044;2023-06-24T01:49:19;7.82;;;4.65;;
11287;SDS011;5700;50.996;7.044;2023-06-24T01:52:22;7.10;;;5.00;;
11287;SDS011;5700;50.996;7.044;2023-06-24T01:55:24;9.45;;;5.03;;
11287;SDS011;5700;50.996;7.044;2023-06-24T01:58:26;7.75;;;4.40;;
11287;SDS011;5700;50.996;7.044;2023-06-24T02:01:27;7.22;;;4.45;;
11287;SDS011;5700;50.996;7.044;2023-06-24T02:04:31;7.22;;;4.53;;
11287;SDS011;5700;50.996;7.044;2023-06-24T02:07:33;10.50;;;4.63;;
11287;SDS011;5700;50.996;7.044;2023-06-24T02:10:36;6.82;;;4.75;;
11287;SDS011;5700;50.996;7.044;2023-06-24T02:13:39;9.65;;;4.53;;
11287;SDS011;5700;50.996;7.044;2023-06-24T02:16:41;7.88;;;4.38;;
11287;SDS011;5700;50.996;7.044;2023-06-24T02:19:44;8.82;;;5.10;;
11287;SDS011;5700;50.996;7.044;2023-06-24T02:22:47;9.77;;;4.75;;
11287;SDS011;5700;50.996;7.044;2023-06-24T02:25:49;7.32;;;4.60;;
11287;SDS011;5700;50.996;7.044;2023-06-24T02:28:50;8.50;;;4.45;;
11287;SDS011;5700;50.996;7.044;2023-06-24T02:31:52;7.63;;;4.82;;
11287;SDS011;5700;50.996;7.044;2023-06-24T02:34:56;9.63;;;5.70;;
11287;SDS011;5700;50.996;7.044;2023-06-24T02:37:58;8.27;;;5.32;;
11287;SDS011;5700;50.996;7.044;2023-06-24T02:40:59;9.55;;;5.03;;
11287;SDS011;5700;50.996;7.044;2023-06-24T02:44:04;11.93;;;5.38;;
11287;SDS011;5700;50.996;7.044;2023-06-24T02:47:06;8.65;;;5.15;;
11287;SDS011;5700;50.996;7.044;2023-06-24T02:50:11;9.75;;;5.38;;
11287;SDS011;5700;50.996;7.044;2023-06-24T02:53:13;7.97;;;4.72;;
11287;SDS011;5700;50.996;7.044;2023-06-24T02:56:15;7.93;;;5.15;;
11287;SDS011;5700;50.996;7.044;2023-06-24T02:59:20;8.32;;;4.57;;
11287;SDS011;5700;50.996;7.044;2023-06-24T03:02:22;7.75;;;4.65;;
11287;SDS011;5700;50.996;7.044;2023-06-24T03:05:26;7.65;;;4.72;;
11287;SDS011;5700;50.996;7.044;2023-06-24T03:08:27;6.90;;;4.70;;
11287;SDS011;5700;50.996;7.044;2023-06-24T03:11:29;7.65;;;4.53;;
11287;SDS011;5700;50.996;7.044;2023-06-24T03:14:31;7.20;;;4.72;;
11287;SDS011;5700;50.996;7.044;2023-06-24T03:17:32;7.57;;;4.82;;
11287;SDS011;5700;50.996;7.044;2023-06-24T03:20:35;8.02;;;4.90;;
11287;SDS011;5700;50.996;7.044;2023-06-24T03:23:38;10.15;;;4.50;;
11287;SDS011;5700;50.996;7.044;2023-06-24T03:26:40;7.85;;;4.88;;
11287;SDS011;5700;50.996;7.044;2023-06-24T03:29:42;7.88;;;4.85;;
11287;SDS011;5700;50.996;7.044;2023-06-24T03:32:43;9.32;;;4.60;;
11287;SDS011;5700;50.996;7.044;2023-06-24T03:35:48;7.38;;;4.60;;
11287;SDS011;5700;50.996;7.044;2023-06-24T03:38:49;7.15;;;4.50;;
11287;SDS011;5700;50.996;7.044;2023-06-24T03:41:51;8.65;;;5.03;;
11287;SDS011;5700;50.996;7.044;2023-06-24T03:44:53;8.07;;;5.25;;
11287;SDS011;5700;50.996;7.044;2023-06-24T03:47:55;8.48;;;4.35;;
11287;SDS011;5700;50.996;7.044;2023-06-24T03:50:57;7.60;;;5.00;;
11287;SDS011;5700;50.996;7.044;2023-06-24T03:53:59;9.40;;;4.80;;
11287;SDS011;5700;50.996;7.044;2023-06-24T03:57:00;7.53;;;4.78;;
11287;SDS011;5700;50.996;7.044;2023-06-24T04:00:02;6.88;;;4.60;;
11287;SDS011;5700;50.996;7.044;2023-06-24T04:03:12;8.05;;;4.82;;
11287;SDS011;5700;50.996;7.044;2023-06-24T04:06:15;7.13;;;4.78;;
11287;SDS011;5700;50.996;7.044;2023-06-24T04:09:16;6.93;;;4.15;;
11287;SDS011;5700;50.996;7.044;2023-06-24T04:12:18;9.07;;;4.93;;
11287;SDS011;5700;50.996;7.044;2023-06-24T04:15:19;8.32;;;5.07;;
11287;SDS011;5700;50.996;7.044;2023-06-24T04:18:21;8.02;;;4.60;;
11287;SDS011;5700;50.996;7.044;2023-06-24T04:21:24;7.80;;;4.93;;
11287;SDS011;5700;50.996;7.044;2023-06-24T04:24:25;8.65;;;5.07;;
11287;SDS011;5700;50.996;7.044;2023-06-24T04:27:27;7.78;;;5.07;;
11287;SDS011;5700;50.996;7.044;2023-06-24T04:30:28;10.05;;;5.20;;
11287;SDS011;5700;50.996;7.044;2023-06-24T04:33:30;8.43;;;5.28;;
11287;SDS011;5700;50.996;7.044;2023-06-24T04:36:32;7.65;;;5.15;;
11287;SDS011;5700;50.996;7.044;2023-06-24T04:39:35;9.65;;;5.82;;
11287;SDS011;5700;50.996;7.044;2023-06-24T04:42:36;7.68;;;5.07;;
11287;SDS011;5700;50.996;7.044;2023-06-24T04:45:38;9.65;;;6.22;;
11287;SDS011;5700;50.996;7.044;2023-06-24T04:48:39;8.43;;;5.30;;
11287;SDS011;5700;50.996;7.044;2023-06-24T04:51:42;7.97;;;4.47;;
11287;SDS011;5700;50.996;7.044;2023-06-24T04:54:43;12.05;;;5.40;;
11287;SDS011;5700;50.996;7.044;2023-06-24T04:57:45;8.40;;;5.25;;
11287;SDS011;5700;50.996;7.044;2023-06-24T05:00:46;7.95;;;5.45;;
11287;SDS011;5700;50.996;7.044;2023-06-24T05:03:48;7.97;;;5.10;;
11287;SDS011;5700;50.996;7.044;2023-06-24T05:06:50;11.88;;;4.93;;
11287;SDS011;5700;50.996;7.044;2023-06-24T05:09:52;8.90;;;5.30;;
11287;SDS011;5700;50.996;7.044;2023-06-24T05:12:54;8.35;;;5.70;;
11287;SDS011;5700;50.996;7.044;2023-06-24T05:15:55;9.75;;;5.70;;
11287;SDS011;5700;50.996;7.044;2023-06-24T05:18:56;8.13;;;5.10;;
11287;SDS011;5700;50.996;7.044;2023-06-24T05:21:59;9.20;;;5.22;;
11287;SDS011;5700;50.996;7.044;2023-06-24T05:25:01;10.57;;;4.68;;
11287;SDS011;5700;50.996;7.044;2023-06-24T05:28:02;8.13;;;5.35;;
11287;SDS011;5700;50.996;7.044;2023-06-24T05:31:04;7.82;;;5.25;;
11287;SDS011;5700;50.996;7.044;2023-06-24T05:34:05;8.43;;;5.65;;
11287;SDS011;5700;50.996;7.044;2023-06-24T05:37:09;9.38;;;5.60;;
11287;SDS011;5700;50.996;7.044;2023-06-24T05:40:10;8.57;;;5.50;;
11287;SDS011;5700;50.996;7.044;2023-06-24T05:43:12;6.95;;;4.13;;
11287;SDS011;5700;50.996;7.044;2023-06-24T05:46:14;8.77;;;4.90;;
11287;SDS011;5700;50.996;7.044;2023-06-24T05:49:15;9.52;;;5.35;;
11287;SDS011;5700;50.996;7.044;2023-06-24T05:52:18;8.15;;;5.72;;
11287;SDS011;5700;50.996;7.044;2023-06-24T05:55:19;6.47;;;4.82;;
11287;SDS011;5700;50.996;7.044;2023-06-24T05:58:21;6.15;;;4.20;;
11287;SDS011;5700;50.996;7.044;2023-06-24T06:01:23;8.73;;;4.95;;
11287;SDS011;5700;50.996;7.044;2023-06-24T06:04:24;10.65;;;5.85;;
11287;SDS011;5700;50.996;7.044;2023-06-24T06:07:27;9.80;;;5.95;;
11287;SDS011;5700;50.996;7.044;2023-06-24T06:10:28;7.28;;;4.85;;
11287;SDS011;5700;50.996;7.044;2023-06-24T06:13:30;7.55;;;5.10;;
11287;SDS011;5700;50.996;7.044;2023-06-24T06:16:31;8.02;;;4.60;;
11287;SDS011;5700;50.996;7.044;2023-06-24T06:19:33;8.88;;;5.13;;
11287;SDS011;5700;50.996;7.044;2023-06-24T06:22:35;9.30;;;4.70;;
11287;SDS011;5700;50.996;7.044;2023-06-24T06:25:38;7.07;;;4.82;;
11287;SDS011;5700;50.996;7.044;2023-06-24T06:28:39;9.93;;;5.18;;
11287;SDS011;5700;50.996;7.044;2023-06-24T06:31:41;10.38;;;5.65;;
11287;SDS011;5700;50.996;7.044;2023-06-24T06:34:42;8.45;;;5.22;;
11287;SDS011;5700;50.996;7.044;2023-06-24T06:37:46;8.95;;;5.75;;
11287;SDS011;5700;50.996;7.044;2023-06-24T06:40:52;7.80;;;5.00;;
11287;SDS011;5700;50.996;7.044;2023-06-24T06:43:54;8.05;;;5.22;;
11287;SDS011;5700;50.996;7.044;2023-06-24T06:46:55;9.90;;;5.35;;
11287;SDS011;5700;50.996;7.044;2023-06-24T06:49:57;8.30;;;4.97;;
11287;SDS011;5700;50.996;7.044;2023-06-24T06:52:59;8.57;;;4.65;;
11287;SDS011;5700;50.996;7.044;2023-06-24T06:56:01;8.98;;;6.03;;
11287;SDS011;5700;50.996;7.044;2023-06-24T06:59:02;10.75;;;5.03;;
11287;SDS011;5700;50.996;7.044;2023-06-24T07:02:04;9.13;;;5.70;;
11287;SDS011;5700;50.996;7.044;2023-06-24T07:05:06;7.65;;;5.10;;
11287;SDS011;5700;50.996;7.044;2023-06-24T07:08:11;11.52;;;7.15;;
11287;SDS011;5700;50.996;7.044;2023-06-24T07:11:12;9.20;;;6.50;;
11287;SDS011;5700;50.996;7.044;2023-06-24T07:14:14;11.77;;;6.25;;
11287;SDS011;5700;50.996;7.044;2023-06-24T07:17:15;11.23;;;5.80;;
11287;SDS011;5700;50.996;7.044;2023-06-24T07:20:17;11.15;;;6.15;;
11287;SDS011;5700;50.996;7.044;2023-06-24T07:23:19;12.20;;;7.10;;
11287;SDS011;5700;50.996;7.044;2023-06-24T07:26:21;9.80;;;6.18;;
11287;SDS011;5700;50.996;7.044;2023-06-24T07:29:22;9.68;;;6.25;;
11287;SDS011;5700;50.996;7.044;2023-06-24T07:32:24;9.02;;;5.78;;
11287;SDS011;5700;50.996;7.044;2023-06-24T07:35:25;14.18;;;7.88;;
11287;SDS011;5700;50.996;7.044;2023-06-24T07:38:29;9.45;;;5.63;;
11287;SDS011;5700;50.996;7.044;2023-06-24T07:41:31;12.32;;;7.13;;
11287;SDS011;5700;50.996;7.044;2023-06-24T07:44:33;11.00;;;6.47;;
11287;SDS011;5700;50.996;7.044;2023-06-24T07:47:36;8.85;;;6.43;;
11287;SDS011;5700;50.996;7.044;2023-06-24T07:50:38;8.68;;;5.47;;
11287;SDS011;5700;50.996;7.044;2023-06-24T07:53:41;9.68;;;6.05;;
11287;SDS011;5700;50.996;7.044;2023-06-24T07:56:42;7.28;;;4.72;;
11287;SDS011;5700;50.996;7.044;2023-06-24T07:59:44;8.38;;;5.90;;
11287;SDS011;5700;50.996;7.044;2023-06-24T08:02:45;8.15;;;4.88;;
11287;SDS011;5700;50.996;7.044;2023-06-24T08:05:46;11.07;;;6.28;;
11287;SDS011;5700;50.996;7.044;2023-06-24T08:08:51;9.63;;;5.65;;
11287;SDS011;5700;50.996;7.044;2023-06-24T08:11:52;8.38;;;5.63;;
11287;SDS011;5700;50.996;7.044;2023-06-24T08:14:53;8.73;;;5.07;;
11287;SDS011;5700;50.996;7.044;2023-06-24T08:17:55;7.53;;;4.93;;
11287;SDS011;5700;50.996;7.044;2023-06-24T08:20:56;9.65;;;5.53;;
11287;SDS011;5700;50.996;7.044;2023-06-24T08:23:59;13.23;;;6.25;;
11287;SDS011;5700;50.996;7.044;2023-06-24T08:27:00;10.93;;;5.38;;
11287;SDS011;5700;50.996;7.044;2023-06-24T08:30:02;8.52;;;5.07;;
11287;SDS011;5700;50.996;7.044;2023-06-24T08:33:04;7.70;;;5.20;;
11287;SDS011;5700;50.996;7.044;2023-06-24T08:36:06;10.77;;;5.38;;
11287;SDS011;5700;50.996;7.044;2023-06-24T08:39:08;11.02;;;5.53;;
11287;SDS011;5700;50.996;7.044;2023-06-24T08:42:10;12.70;;;6.88;;
11287;SDS011;5700;50.996;7.044;2023-06-24T08:45:11;9.93;;;5.90;;
11287;SDS011;5700;50.996;7.044;2023-06-24T08:48:13;8.88;;;5.35;;
11287;SDS011;5700;50.996;7.044;2023-06-24T08:51:15;8.98;;;4.85;;
11287;SDS011;5700;50.996;7.044;2023-06-24T08:54:21;9.77;;;5.30;;
11287;SDS011;5700;50.996;7.044;2023-06-24T08:57:22;8.45;;;5.18;;
11287;SDS011;5700;50.996;7.044;2023-06-24T09:00:24;8.75;;;4.07;;
11287;SDS011;5700;50.996;7.044;2023-06-24T09:03:27;8.50;;;4.68;;
11287;SDS011;5700;50.996;7.044;2023-06-24T09:06:28;7.93;;;4.65;;
11287;SDS011;5700;50.996;7.044;2023-06-24T09:09:31;9.88;;;5.10;;
11287;SDS011;5700;50.996;7.044;2023-06-24T09:12:33;9.43;;;4.38;;
11287;SDS011;5700;50.996;7.044;2023-06-24T09:15:36;8.80;;;4.55;;
11287;SDS011;5700;50.996;7.044;2023-06-24T09:18:38;8.20;;;4.13;;
11287;SDS011;5700;50.996;7.044;2023-06-24T09:21:39;8.68;;;4.30;;
11287;SDS011;5700;50.996;7.044;2023-06-24T09:24:42;7.00;;;4.15;;
11287;SDS011;5700;50.996;7.044;2023-06-24T09:27:48;8.40;;;4.03;;
11287;SDS011;5700;50.996;7.044;2023-06-24T09:31:03;6.60;;;3.53;;
11287;SDS011;5700;50.996;7.044;2023-06-24T09:34:06;6.57;;;3.70;;
11287;SDS011;5700;50.996;7.044;2023-06-24T09:37:20;6.65;;;4.47;;
11287;SDS011;5700;50.996;7.044;2023-06-24T09:40:23;9.63;;;4.20;;
11287;SDS011;5700;50.996;7.044;2023-06-24T09:43:25;6.47;;;4.10;;
11287;SDS011;5700;50.996;7.044;2023-06-24T09:46:27;7.32;;;3.63;;
11287;SDS011;5700;50.996;7.044;2023-06-24T09:49:30;8.48;;;3.60;;
11287;SDS011;5700;50.996;7.044;2023-06-24T09:52:31;5.63;;;3.70;;
11287;SDS011;5700;50.996;7.044;2023-06-24T09:55:36;6.53;;;3.70;;
11287;SDS011;5700;50.996;7.044;2023-06-24T09:58:39;6.30;;;3.55;;
11287;SDS011;5700;50.996;7.044;2023-06-24T10:01:43;8.27;;;4.53;;
11287;SDS011;5700;50.996;7.044;2023-06-24T10:04:45;6.28;;;3.47;;
11287;SDS011;5700;50.996;7.044;2023-06-24T10:07:47;9.88;;;4.53;;
11287;SDS011;5700;50.996;7.044;2023-06-24T10:10:51;6.05;;;3.47;;
11287;SDS011;5700;50.996;7.044;2023-06-24T10:13:52;9.05;;;4.63;;
11287;SDS011;5700;50.996;7.044;2023-06-24T10:17:00;7.55;;;4.20;;
11287;SDS011;5700;50.996;7.044;2023-06-24T10:20:03;7.40;;;3.95;;
11287;SDS011;5700;50.996;7.044;2023-06-24T10:23:06;6.35;;;3.75;;
11287;SDS011;5700;50.996;7.044;2023-06-24T10:26:09;7.60;;;4.00;;
11287;SDS011;5700;50.996;7.044;2023-06-24T10:29:12;8.20;;;3.90;;
11287;SDS011;5700;50.996;7.044;2023-06-24T10:32:17;5.63;;;3.80;;
11287;SDS011;5700;50.996;7.044;2023-06-24T10:35:21;6.28;;;3.03;;
11287;SDS011;5700;50.996;7.044;2023-06-24T10:38:25;6.63;;;2.88;;
11287;SDS011;5700;50.996;7.044;2023-06-24T10:41:27;5.47;;;3.10;;
11287;SDS011;5700;50.996;7.044;2023-06-24T10:44:29;6.10;;;3.17;;
11287;SDS011;5700;50.996;7.044;2023-06-24T10:47:46;4.53;;;2.63;;
11287;SDS011;5700;50.996;7.044;2023-06-24T10:50:48;4.68;;;2.63;;
11287;SDS011;5700;50.996;7.044;2023-06-24T10:53:50;4.28;;;2.75;;
11287;SDS011;5700;50.996;7.044;2023-06-24T10:56:54;4.70;;;2.83;;
11287;SDS011;5700;50.996;7.044;2023-06-24T10:59:56;6.70;;;2.75;;
11287;SDS011;5700;50.996;7.044;2023-06-24T11:03:07;4.75;;;2.65;;
11287;SDS011;5700;50.996;7.044;2023-06-24T11:06:10;4.10;;;2.58;;
11287;SDS011;5700;50.996;7.044;2023-06-24T11:09:11;4.30;;;2.60;;
11287;SDS011;5700;50.996;7.044;2023-06-24T11:12:14;4.43;;;2.47;;
11287;SDS011;5700;50.996;7.044;2023-06-24T11:15:16;5.57;;;3.10;;
11287;SDS011;5700;50.996;7.044;2023-06-24T11:18:19;4.85;;;2.20;;
11287;SDS011;5700;50.996;7.044;2023-06-24T11:21:21;5.35;;;3.00;;
11287;SDS011;5700;50.996;7.044;2023-06-24T11:24:29;3.97;;;2.25;;
11287;SDS011;5700;50.996;7.044;2023-06-24T11:27:32;4.85;;;2.65;;
11287;SDS011;5700;50.996;7.044;2023-06-24T11:30:34;5.28;;;2.88;;
11287;SDS011;5700;50.996;7.044;2023-06-24T11:33:35;3.47;;;2.58;;
11287;SDS011;5700;50.996;7.044;2023-06-24T11:36:36;3.97;;;2.38;;
11287;SDS011;5700;50.996;7.044;2023-06-24T11:39:38;4.22;;;2.45;;
11287;SDS011;5700;50.996;7.044;2023-06-24T11:42:41;3.88;;;2.15;;
11287;SDS011;5700;50.996;7.044;2023-06-24T11:45:47;4.18;;;2.38;;
11287;SDS011;5700;50.996;7.044;2023-06-24T11:48:49;4.28;;;2.28;;
11287;SDS011;5700;50.996;7.044;2023-06-24T11:51:50;3.00;;;2.17;;
11287;SDS011;5700;50.996;7.044;2023-06-24T11:54:52;3.40;;;2.03;;
11287;SDS011;5700;50.996;7.044;2023-06-24T11:57:56;4.03;;;2.00;;
11287;SDS011;5700;50.996;7.044;2023-06-24T12:00:59;4.80;;;2.88;;
11287;SDS011;5700;50.996;7.044;2023-06-24T12:04:00;4.82;;;2.67;;
11287;SDS011;5700;50.996;7.044;2023-06-24T12:07:02;4.95;;;2.50;;
11287;SDS011;5700;50.996;7.044;2023-06-24T12:10:04;4.38;;;2.33;;
11287;SDS011;5700;50.996;7.044;2023-06-24T12:13:07;4.97;;;2.30;;
11287;SDS011;5700;50.996;7.044;2023-06-24T12:16:09;4.05;;;2.50;;
11287;SDS011;5700;50.996;7.044;2023-06-24T12:19:10;7.20;;;2.53;;
11287;SDS011;5700;50.996;7.044;2023-06-24T12:22:12;4.93;;;2.50;;
11287;SDS011;5700;50.996;7.044;2023-06-24T12:25:14;3.72;;;2.42;;
11287;SDS011;5700;50.996;7.044;2023-06-24T12:28:18;5.40;;;2.20;;
11287;SDS011;5700;50.996;7.044;2023-06-24T12:31:19;4.95;;;2.50;;
11287;SDS011;5700;50.996;7.044;2023-06-24T12:34:20;3.78;;;2.40;;
11287;SDS011;5700;50.996;7.044;2023-06-24T12:37:22;3.65;;;2.53;;
11287;SDS011;5700;50.996;7.044;2023-06-24T12:40:23;5.55;;;2.50;;
11287;SDS011;5700;50.996;7.044;2023-06-24T12:43:26;4.97;;;2.72;;
11287;SDS011;5700;50.996;7.044;2023-06-24T12:46:27;3.72;;;2.13;;
11287;SDS011;5700;50.996;7.044;2023-06-24T12:49:29;3.97;;;2.40;;
11287;SDS011;5700;50.996;7.044;2023-06-24T12:52:30;5.72;;;2.70;;
11287;SDS011;5700;50.996;7.044;2023-06-24T12:55:32;3.63;;;2.30;;
11287;SDS011;5700;50.996;7.044;2023-06-24T12:58:34;5.30;;;2.55;;
11287;SDS011;5700;50.996;7.044;2023-06-24T13:01:36;5.30;;;2.08;;
11287;SDS011;5700;50.996;7.044;2023-06-24T13:04:37;6.03;;;2.42;;
11287;SDS011;5700;50.996;7.044;2023-06-24T13:07:39;4.95;;;2.90;;
11287;SDS011;5700;50.996;7.044;2023-06-24T13:10:40;5.40;;;2.70;;
11287;SDS011;5700;50.996;7.044;2023-06-24T13:13:43;6.70;;;2.60;;
11287;SDS011;5700;50.996;7.044;2023-06-24T13:16:44;6.07;;;2.53;;
11287;SDS011;5700;50.996;7.044;2023-06-24T13:19:46;5.15;;;2.72;;
11287;SDS011;5700;50.996;7.044;2023-06-24T13:22:47;5.00;;;2.63;;
11287;SDS011;5700;50.996;7.044;2023-06-24T13:25:49;5.20;;;2.65;;
11287;SDS011;5700;50.996;7.044;2023-06-24T13:28:51;3.42;;;2.13;;
11287;SDS011;5700;50.996;7.044;2023-06-24T13:31:54;5.43;;;2.35;;
11287;SDS011;5700;50.996;7.044;2023-06-24T13:34:56;4.65;;;2.65;;
11287;SDS011;5700;50.996;7.044;2023-06-24T13:37:57;3.72;;;2.20;;
11287;SDS011;5700;50.996;7.044;2023-06-24T13:40:59;5.50;;;2.80;;
11287;SDS011;5700;50.996;7.044;2023-06-24T13:44:02;4.15;;;2.50;;
11287;SDS011;5700;50.996;7.044;2023-06-24T13:47:04;4.03;;;2.45;;
11287;SDS011;5700;50.996;7.044;2023-06-24T13:50:06;6.15;;;2.80;;
11287;SDS011;5700;50.996;7.044;2023-06-24T13:53:08;4.55;;;2.30;;
11287;SDS011;5700;50.996;7.044;2023-06-24T13:56:10;5.57;;;2.70;;
11287;SDS011;5700;50.996;7.044;2023-06-24T13:59:13;4.35;;;2.30;;
11287;SDS011;5700;50.996;7.044;2023-06-24T14:02:14;5.55;;;2.45;;
11287;SDS011;5700;50.996;7.044;2023-06-24T14:05:16;6.00;;;2.72;;
11287;SDS011;5700;50.996;7.044;2023-06-24T14:08:17;5.88;;;2.40;;
11287;SDS011;5700;50.996;7.044;2023-06-24T14:11:19;5.32;;;2.20;;
11287;SDS011;5700;50.996;7.044;2023-06-24T14:14:21;4.45;;;2.60;;
11287;SDS011;5700;50.996;7.044;2023-06-24T14:17:23;5.90;;;2.28;;
11287;SDS011;5700;50.996;7.044;2023-06-24T14:20:25;3.70;;;2.33;;
11287;SDS011;5700;50.996;7.044;2023-06-24T14:23:27;3.53;;;2.15;;
11287;SDS011;5700;50.996;7.044;2023-06-24T14:26:28;4.68;;;2.55;;
11287;SDS011;5700;50.996;7.044;2023-06-24T14:29:31;4.88;;;2.35;;
11287;SDS011;5700;50.996;7.044;2023-06-24T14:32:32;4.07;;;2.25;;
11287;SDS011;5700;50.996;7.044;2023-06-24T14:35:34;4.93;;;2.42;;
11287;SDS011;5700;50.996;7.044;2023-06-24T14:38:35;3.50;;;1.92;;
11287;SDS011;5700;50.996;7.044;2023-06-24T14:41:37;4.00;;;2.20;;
11287;SDS011;5700;50.996;7.044;2023-06-24T14:44:39;5.30;;;2.53;;
11287;SDS011;5700;50.996;7.044;2023-06-24T14:47:41;3.95;;;2.00;;
11287;SDS011;5700;50.996;7.044;2023-06-24T14:50:42;3.67;;;2.15;;
11287;SDS011;5700;50.996;7.044;2023-06-24T14:53:44;5.43;;;2.20;;
11287;SDS011;5700;50.996;7.044;2023-06-24T14:56:45;3.85;;;2.10;;
11287;SDS011;5700;50.996;7.044;2023-06-24T14:59:48;3.67;;;1.90;;
11287;SDS011;5700;50.996;7.044;2023-06-24T15:02:50;6.25;;;2.55;;
11287;SDS011;5700;50.996;7.044;2023-06-24T15:05:51;3.05;;;1.80;;
11287;SDS011;5700;50.996;7.044;2023-06-24T15:08:53;5.05;;;2.22;;
11287;SDS011;5700;50.996;7.044;2023-06-24T15:11:54;3.78;;;1.67;;
11287;SDS011;5700;50.996;7.044;2023-06-24T15:14:57;3.70;;;1.92;;
11287;SDS011;5700;50.996;7.044;2023-06-24T15:17:58;4.72;;;2.15;;
11287;SDS011;5700;50.996;7.044;2023-06-24T15:21:00;5.03;;;1.95;;
11287;SDS011;5700;50.996;7.044;2023-06-24T15:24:02;3.53;;;1.80;;
11287;SDS011;5700;50.996;7.044;2023-06-24T15:27:04;4.22;;;1.88;;
11287;SDS011;5700;50.996;7.044;2023-06-24T15:30:07;2.80;;;1.50;;
11287;SDS011;5700;50.996;7.044;2023-06-24T15:33:08;3.28;;;1.70;;
11287;SDS011;5700;50.996;7.044;2023-06-24T15:36:10;2.53;;;1.30;;
11287;SDS011;5700;50.996;7.044;2023-06-24T15:39:11;2.97;;;1.65;;
11287;SDS011;5700;50.996;7.044;2023-06-24T15:42:13;4.05;;;1.83;;
11287;SDS011;5700;50.996;7.044;2023-06-24T15:45:16;3.22;;;1.70;;
11287;SDS011;5700;50.996;7.044;2023-06-24T15:48:17;4.32;;;1.70;;
11287;SDS011;5700;50.996;7.044;2023-06-24T15:51:18;3.40;;;1.65;;
11287;SDS011;5700;50.996;7.044;2023-06-24T15:54:20;5.70;;;1.70;;
11287;SDS011;5700;50.996;7.044;2023-06-24T15:57:21;3.33;;;1.60;;
11287;SDS011;5700;50.996;7.044;2023-06-24T16:00:24;2.92;;;1.50;;
11287;SDS011;5700;50.996;7.044;2023-06-24T16:03:25;3.35;;;1.42;;
11287;SDS011;5700;50.996;7.044;2023-06-24T16:06:27;3.17;;;1.67;;
11287;SDS011;5700;50.996;7.044;2023-06-24T16:09:28;3.22;;;1.75;;
11287;SDS011;5700;50.996;7.044;2023-06-24T16:12:30;2.85;;;1.58;;
11287;SDS011;5700;50.996;7.044;2023-06-24T16:15:33;4.63;;;1.73;;
11287;SDS011;5700;50.996;7.044;2023-06-24T16:18:34;3.05;;;1.63;;
11287;SDS011;5700;50.996;7.044;2023-06-24T16:21:35;3.30;;;1.83;;
11287;SDS011;5700;50.996;7.044;2023-06-24T16:24:37;3.60;;;2.00;;
11287;SDS011;5700;50.996;7.044;2023-06-24T16:27:38;2.92;;;1.77;;
11287;SDS011;5700;50.996;7.044;2023-06-24T16:30:41;2.63;;;1.42;;
11287;SDS011;5700;50.996;7.044;2023-06-24T16:33:43;2.63;;;1.67;;
11287;SDS011;5700;50.996;7.044;2023-06-24T16:36:44;3.05;;;1.55;;
11287;SDS011;5700;50.996;7.044;2023-06-24T16:39:46;3.40;;;1.65;;
11287;SDS011;5700;50.996;7.044;2023-06-24T16:42:47;2.42;;;1.40;;
11287;SDS011;5700;50.996;7.044;2023-06-24T16:45:50;2.95;;;1.65;;
11287;SDS011;5700;50.996;7.044;2023-06-24T16:48:51;2.90;;;1.50;;
11287;SDS011;5700;50.996;7.044;2023-06-24T16:51:53;2.53;;;1.50;;
11287;SDS011;5700;50.996;7.044;2023-06-24T16:54:54;3.15;;;1.75;;
11287;SDS011;5700;50.996;7.044;2023-06-24T16:57:56;4.13;;;1.52;;
11287;SDS011;5700;50.996;7.044;2023-06-24T17:00:58;4.07;;;1.60;;
11287;SDS011;5700;50.996;7.044;2023-06-24T17:04:00;3.25;;;1.50;;
11287;SDS011;5700;50.996;7.044;2023-06-24T17:07:01;4.22;;;1.50;;
11287;SDS011;5700;50.996;7.044;2023-06-24T17:10:04;3.28;;;1.25;;
11287;SDS011;5700;50.996;7.044;2023-06-24T17:13:06;3.28;;;1.60;;
11287;SDS011;5700;50.996;7.044;2023-06-24T17:16:08;2.70;;;1.40;;
11287;SDS011;5700;50.996;7.044;2023-06-24T17:19:10;3.38;;;1.60;;
11287;SDS011;5700;50.996;7.044;2023-06-24T17:22:11;2.13;;;1.38;;
11287;SDS011;5700;50.996;7.044;2023-06-24T17:25:13;4.35;;;1.50;;
11287;SDS011;5700;50.996;7.044;2023-06-24T17:28:14;2.72;;;1.50;;
11287;SDS011;5700;50.996;7.044;2023-06-24T17:31:17;3.33;;;1.60;;
11287;SDS011;5700;50.996;7.044;2023-06-24T17:34:18;2.08;;;1.45;;
11287;SDS011;5700;50.996;7.044;2023-06-24T17:37:20;2.75;;;1.50;;
11287;SDS011;5700;50.996;7.044;2023-06-24T17:40:21;2.88;;;1.35;;
11287;SDS011;5700;50.996;7.044;2023-06-24T17:43:23;2.55;;;1.30;;
11287;SDS011;5700;50.996;7.044;2023-06-24T17:46:26;2.58;;;1.20;;
11287;SDS011;5700;50.996;7.044;2023-06-24T17:49:27;3.50;;;1.60;;
11287;SDS011;5700;50.996;7.044;2023-06-24T17:52:29;3.45;;;1.50;;
11287;SDS011;5700;50.996;7.044;2023-06-24T17:55:30;2.72;;;1.50;;
11287;SDS011;5700;50.996;7.044;2023-06-24T17:58:35;2.75;;;1.52;;
11287;SDS011;5700;50.996;7.044;2023-06-24T18:01:37;2.03;;;1.10;;
11287;SDS011;5700;50.996;7.044;2023-06-24T18:04:39;4.95;;;1.48;;
11287;SDS011;5700;50.996;7.044;2023-06-24T18:07:40;3.17;;;1.40;;
11287;SDS011;5700;50.996;7.044;2023-06-24T18:10:42;2.58;;;1.40;;
11287;SDS011;5700;50.996;7.044;2023-06-24T18:13:44;2.67;;;1.60;;
11287;SDS011;5700;50.996;7.044;2023-06-24T18:16:48;2.58;;;1.30;;
11287;SDS011;5700;50.996;7.044;2023-06-24T18:19:51;3.97;;;1.63;;
11287;SDS011;5700;50.996;7.044;2023-06-24T18:22:52;2.95;;;1.70;;
11287;SDS011;5700;50.996;7.044;2023-06-24T18:25:54;2.20;;;1.52;;
11287;SDS011;5700;50.996;7.044;2023-06-24T18:28:56;2.85;;;1.65;;
11287;SDS011;5700;50.996;7.044;2023-06-24T18:32:00;3.35;;;1.63;;
11287;SDS011;5700;50.996;7.044;2023-06-24T18:35:02;2.72;;;1.33;;